<?xml version="1.0" encoding="UTF-8" standalone="no" ?>
<gpx xmlns="http://www.topografix.com/GPX/1/1" xmlns:xsi="http://www.w3.org/2001/XMLSchema-instance" xsi:schemaLocation="http://www.topografix.com/GPX/1/1 http://www.topografix.com/GPX/1/1/gpx.xsd" version="1.1" creator="VisuGPX - https://www.visugpx.com">
  <metadata>
    <name>Transcaucasie: Géorgie + Arménie</name>
  </metadata>
  <trk>
    <name><![CDATA[Tour d'Europe: étape 437]]></name>
    <extensions>
      <line xmlns="http://www.topografix.com/GPX/gpx_style/0/2">
        <color>0000FF</color>
        <width>4</width>
      </line>
    </extensions>
    <trkseg>
      <trkpt lat="41.64501" lon="41.62766">
        <ele>111.457868</ele>
        <time>2021-09-08T05:10:59.766Z</time>
      </trkpt>
      <trkpt lat="41.64565" lon="41.62777">
        <ele>86.088772</ele>
        <time>2021-09-08T05:20:27.370Z</time>
      </trkpt>
      <trkpt lat="41.64693" lon="41.63021">
        <ele>55.404301</ele>
        <time>2021-09-08T05:21:34.409Z</time>
      </trkpt>
      <trkpt lat="41.64897" lon="41.62923">
        <ele>37.647819</ele>
        <time>2021-09-08T05:22:36.401Z</time>
      </trkpt>
      <trkpt lat="41.65096" lon="41.62817">
        <ele>28.563587</ele>
        <time>2021-09-08T05:23:38.390Z</time>
      </trkpt>
      <trkpt lat="41.65265" lon="41.62859">
        <ele>34.104692</ele>
        <time>2021-09-08T05:24:40.397Z</time>
      </trkpt>
      <trkpt lat="41.65379" lon="41.6307">
        <ele>37.703506</ele>
        <time>2021-09-08T05:25:22.410Z</time>
      </trkpt>
      <trkpt lat="41.65491" lon="41.63278">
        <ele>37.045693</ele>
        <time>2021-09-08T05:26:03.384Z</time>
      </trkpt>
      <trkpt lat="41.65608" lon="41.63496">
        <ele>34.580291</ele>
        <time>2021-09-08T05:26:46.386Z</time>
      </trkpt>
      <trkpt lat="41.65697" lon="41.63724">
        <ele>33.934327</ele>
        <time>2021-09-08T05:27:27.387Z</time>
      </trkpt>
      <trkpt lat="41.65622" lon="41.64019">
        <ele>30.262178</ele>
        <time>2021-09-08T05:28:22.367Z</time>
      </trkpt>
      <trkpt lat="41.65506" lon="41.64247">
        <ele>27.88545</ele>
        <time>2021-09-08T05:29:32.395Z</time>
      </trkpt>
      <trkpt lat="41.65314" lon="41.64326">
        <ele>26.413541</ele>
        <time>2021-09-08T05:30:36.399Z</time>
      </trkpt>
      <trkpt lat="41.65123" lon="41.64371">
        <ele>28.393063</ele>
        <time>2021-09-08T05:31:46.391Z</time>
      </trkpt>
      <trkpt lat="41.64915" lon="41.64478">
        <ele>26.737967</ele>
        <time>2021-09-08T05:32:45.391Z</time>
      </trkpt>
      <trkpt lat="41.64715" lon="41.64562">
        <ele>32.282348</ele>
        <time>2021-09-08T05:33:48.378Z</time>
      </trkpt>
      <trkpt lat="41.64642" lon="41.64817">
        <ele>42.882597</ele>
        <time>2021-09-08T05:35:25.387Z</time>
      </trkpt>
      <trkpt lat="41.64638" lon="41.65099">
        <ele>40.323124</ele>
        <time>2021-09-08T05:36:30.389Z</time>
      </trkpt>
      <trkpt lat="41.64617" lon="41.6539">
        <ele>37.735135</ele>
        <time>2021-09-08T05:37:33.415Z</time>
      </trkpt>
      <trkpt lat="41.64627" lon="41.65675">
        <ele>42.443782</ele>
        <time>2021-09-08T05:38:37.389Z</time>
      </trkpt>
      <trkpt lat="41.64693" lon="41.65942">
        <ele>39.961267</ele>
        <time>2021-09-08T05:40:01.377Z</time>
      </trkpt>
      <trkpt lat="41.64829" lon="41.66171">
        <ele>29.496082</ele>
        <time>2021-09-08T05:40:45.401Z</time>
      </trkpt>
      <trkpt lat="41.64929" lon="41.66408">
        <ele>27.684303</ele>
        <time>2021-09-08T05:42:08.418Z</time>
      </trkpt>
      <trkpt lat="41.6504" lon="41.66635">
        <ele>26.034805</ele>
        <time>2021-09-08T05:43:15.410Z</time>
      </trkpt>
      <trkpt lat="41.65174" lon="41.66874">
        <ele>21.428475</ele>
        <time>2021-09-08T05:44:15.441Z</time>
      </trkpt>
      <trkpt lat="41.65333" lon="41.67083">
        <ele>23.044278</ele>
        <time>2021-09-08T05:45:10.418Z</time>
      </trkpt>
      <trkpt lat="41.65496" lon="41.67299">
        <ele>24.863832</ele>
        <time>2021-09-08T05:46:10.417Z</time>
      </trkpt>
      <trkpt lat="41.65682" lon="41.67502">
        <ele>19.660738</ele>
        <time>2021-09-08T05:47:09.378Z</time>
      </trkpt>
      <trkpt lat="41.65866" lon="41.67658">
        <ele>17.21846</ele>
        <time>2021-09-08T05:48:09.426Z</time>
      </trkpt>
      <trkpt lat="41.66039" lon="41.67802">
        <ele>19.096005</ele>
        <time>2021-09-08T05:55:53.383Z</time>
      </trkpt>
      <trkpt lat="41.66194" lon="41.67978">
        <ele>22.239292</ele>
        <time>2021-09-08T05:56:59.390Z</time>
      </trkpt>
      <trkpt lat="41.66348" lon="41.68176">
        <ele>25.147774</ele>
        <time>2021-09-08T05:58:05.389Z</time>
      </trkpt>
      <trkpt lat="41.66495" lon="41.68381">
        <ele>26.127642</ele>
        <time>2021-09-08T05:59:06.381Z</time>
      </trkpt>
      <trkpt lat="41.6666" lon="41.6855">
        <ele>24.871503</ele>
        <time>2021-09-08T05:59:54.419Z</time>
      </trkpt>
      <trkpt lat="41.66868" lon="41.68715">
        <ele>23.356266</ele>
        <time>2021-09-08T06:00:51.398Z</time>
      </trkpt>
      <trkpt lat="41.67078" lon="41.68872">
        <ele>22.331341</ele>
        <time>2021-09-08T06:01:51.399Z</time>
      </trkpt>
      <trkpt lat="41.67201" lon="41.69102">
        <ele>31.587001</ele>
        <time>2021-09-08T06:02:59.380Z</time>
      </trkpt>
      <trkpt lat="41.67359" lon="41.69298">
        <ele>28.400236</ele>
        <time>2021-09-08T06:03:57.418Z</time>
      </trkpt>
      <trkpt lat="41.67527" lon="41.69492">
        <ele>26.132005</ele>
        <time>2021-09-08T06:04:48.402Z</time>
      </trkpt>
      <trkpt lat="41.67712" lon="41.69683">
        <ele>28.898374</ele>
        <time>2021-09-08T06:05:42.392Z</time>
      </trkpt>
      <trkpt lat="41.67916" lon="41.6978">
        <ele>32.058995</ele>
        <time>2021-09-08T06:06:32.397Z</time>
      </trkpt>
      <trkpt lat="41.68122" lon="41.6986">
        <ele>30.053387</ele>
        <time>2021-09-08T06:07:17.394Z</time>
      </trkpt>
      <trkpt lat="41.68323" lon="41.7">
        <ele>23.496957</ele>
        <time>2021-09-08T06:08:08.398Z</time>
      </trkpt>
      <trkpt lat="41.6852" lon="41.70156">
        <ele>26.819589</ele>
        <time>2021-09-08T06:08:59.387Z</time>
      </trkpt>
      <trkpt lat="41.68654" lon="41.7037">
        <ele>32.698272</ele>
        <time>2021-09-08T06:09:56.380Z</time>
      </trkpt>
      <trkpt lat="41.68686" lon="41.70643">
        <ele>35.216488</ele>
        <time>2021-09-08T06:11:35.397Z</time>
      </trkpt>
      <trkpt lat="41.68712" lon="41.7091">
        <ele>50.026189</ele>
        <time>2021-09-08T06:13:13.395Z</time>
      </trkpt>
      <trkpt lat="41.68814" lon="41.71139">
        <ele>61.455111</ele>
        <time>2021-09-08T06:14:44.395Z</time>
      </trkpt>
      <trkpt lat="41.68885" lon="41.71381">
        <ele>78.321871</ele>
        <time>2021-09-08T06:16:35.397Z</time>
      </trkpt>
      <trkpt lat="41.68969" lon="41.71626">
        <ele>93.5087</ele>
        <time>2021-09-08T06:21:32.386Z</time>
      </trkpt>
      <trkpt lat="41.69359" lon="41.72488">
        <ele>97.833735</ele>
        <time>2021-09-08T06:26:25.401Z</time>
      </trkpt>
      <trkpt lat="41.69545" lon="41.72689">
        <ele>108.441062</ele>
        <time>2021-09-08T06:27:05.423Z</time>
      </trkpt>
      <trkpt lat="41.69823" lon="41.72811">
        <ele>92.38855</ele>
        <time>2021-09-08T06:27:45.416Z</time>
      </trkpt>
      <trkpt lat="41.70045" lon="41.7305">
        <ele>71.882092</ele>
        <time>2021-09-08T06:28:25.380Z</time>
      </trkpt>
      <trkpt lat="41.70175" lon="41.73393">
        <ele>54.284824</ele>
        <time>2021-09-08T06:29:05.393Z</time>
      </trkpt>
      <trkpt lat="41.70386" lon="41.73601">
        <ele>40.963727</ele>
        <time>2021-09-08T06:29:45.389Z</time>
      </trkpt>
      <trkpt lat="41.70623" lon="41.73548">
        <ele>36.75155</ele>
        <time>2021-09-08T06:30:26.447Z</time>
      </trkpt>
      <trkpt lat="41.70802" lon="41.73394">
        <ele>36.196615</ele>
        <time>2021-09-08T06:31:13.434Z</time>
      </trkpt>
      <trkpt lat="41.71001" lon="41.73368">
        <ele>33.936909</ele>
        <time>2021-09-08T06:31:53.387Z</time>
      </trkpt>
      <trkpt lat="41.71198" lon="41.73303">
        <ele>29.649683</ele>
        <time>2021-09-08T06:32:34.399Z</time>
      </trkpt>
      <trkpt lat="41.71381" lon="41.73402">
        <ele>31.033826</ele>
        <time>2021-09-08T06:33:23.410Z</time>
      </trkpt>
      <trkpt lat="41.71557" lon="41.73249">
        <ele>35.49854</ele>
        <time>2021-09-08T06:34:14.402Z</time>
      </trkpt>
      <trkpt lat="41.71776" lon="41.73321">
        <ele>32.728061</ele>
        <time>2021-09-08T06:35:08.450Z</time>
      </trkpt>
      <trkpt lat="41.71995" lon="41.73345">
        <ele>32.194475</ele>
        <time>2021-09-08T06:35:51.407Z</time>
      </trkpt>
      <trkpt lat="41.72218" lon="41.73344">
        <ele>32.312351</ele>
        <time>2021-09-08T06:36:43.391Z</time>
      </trkpt>
      <trkpt lat="41.72436" lon="41.73314">
        <ele>31.926856</ele>
        <time>2021-09-08T06:37:29.405Z</time>
      </trkpt>
      <trkpt lat="41.72651" lon="41.73267">
        <ele>26.838297</ele>
        <time>2021-09-08T06:38:19.399Z</time>
      </trkpt>
      <trkpt lat="41.72837" lon="41.73126">
        <ele>28.840499</ele>
        <time>2021-09-08T06:39:13.390Z</time>
      </trkpt>
      <trkpt lat="41.73061" lon="41.73152">
        <ele>29.785226</ele>
        <time>2021-09-08T06:40:04.405Z</time>
      </trkpt>
      <trkpt lat="41.73295" lon="41.73252">
        <ele>33.453428</ele>
        <time>2021-09-08T06:41:01.382Z</time>
      </trkpt>
      <trkpt lat="41.73515" lon="41.73374">
        <ele>33.426524</ele>
        <time>2021-09-08T06:42:01.407Z</time>
      </trkpt>
      <trkpt lat="41.73724" lon="41.73475">
        <ele>33.464674</ele>
        <time>2021-09-08T06:43:01.405Z</time>
      </trkpt>
      <trkpt lat="41.73941" lon="41.73568">
        <ele>31.854729</ele>
        <time>2021-09-08T06:44:00.394Z</time>
      </trkpt>
      <trkpt lat="41.74142" lon="41.73707">
        <ele>35.503915</ele>
        <time>2021-09-08T06:45:02.407Z</time>
      </trkpt>
      <trkpt lat="41.74357" lon="41.73913">
        <ele>34.028608</ele>
        <time>2021-09-08T06:45:53.390Z</time>
      </trkpt>
      <trkpt lat="41.74554" lon="41.74041">
        <ele>36.632635</ele>
        <time>2021-09-08T06:46:39.404Z</time>
      </trkpt>
      <trkpt lat="41.74752" lon="41.74144">
        <ele>41.785512</ele>
        <time>2021-09-08T06:48:04.393Z</time>
      </trkpt>
      <trkpt lat="41.74937" lon="41.74225">
        <ele>57.291417</ele>
        <time>2021-09-08T06:50:05.422Z</time>
      </trkpt>
      <trkpt lat="41.75038" lon="41.7442">
        <ele>73.916957</ele>
        <time>2021-09-08T06:52:23.396Z</time>
      </trkpt>
      <trkpt lat="41.75201" lon="41.74554">
        <ele>79.103127</ele>
        <time>2021-09-08T06:53:53.380Z</time>
      </trkpt>
      <trkpt lat="41.7533" lon="41.74759">
        <ele>94.055498</ele>
        <time>2021-09-08T06:56:08.389Z</time>
      </trkpt>
      <trkpt lat="41.75491" lon="41.74892">
        <ele>110.218165</ele>
        <time>2021-09-08T06:58:26.401Z</time>
      </trkpt>
      <trkpt lat="41.75577" lon="41.75112">
        <ele>128.270073</ele>
        <time>2021-09-08T07:01:00.388Z</time>
      </trkpt>
      <trkpt lat="41.75546" lon="41.75356">
        <ele>148.622419</ele>
        <time>2021-09-08T07:07:59.381Z</time>
      </trkpt>
      <trkpt lat="41.75621" lon="41.75578">
        <ele>157.940722</ele>
        <time>2021-09-08T07:09:41.402Z</time>
      </trkpt>
      <trkpt lat="41.75777" lon="41.75753">
        <ele>159.844047</ele>
        <time>2021-09-08T07:10:56.376Z</time>
      </trkpt>
      <trkpt lat="41.75871" lon="41.75974">
        <ele>163.088521</ele>
        <time>2021-09-08T07:12:35.390Z</time>
      </trkpt>
      <trkpt lat="41.76093" lon="41.7597">
        <ele>157.251525</ele>
        <time>2021-09-08T07:15:25.403Z</time>
      </trkpt>
      <trkpt lat="41.76244" lon="41.75731">
        <ele>132.370083</ele>
        <time>2021-09-08T07:16:06.414Z</time>
      </trkpt>
      <trkpt lat="41.76262" lon="41.75375">
        <ele>108.210483</ele>
        <time>2021-09-08T07:16:45.388Z</time>
      </trkpt>
      <trkpt lat="41.76514" lon="41.75364">
        <ele>89.477162</ele>
        <time>2021-09-08T07:17:25.406Z</time>
      </trkpt>
      <trkpt lat="41.76458" lon="41.75501">
        <ele>75.712887</ele>
        <time>2021-09-08T07:18:09.431Z</time>
      </trkpt>
      <trkpt lat="41.76653" lon="41.75384">
        <ele>75.575067</ele>
        <time>2021-09-08T07:19:00.404Z</time>
      </trkpt>
      <trkpt lat="41.76828" lon="41.75463">
        <ele>66.170014</ele>
        <time>2021-09-08T07:50:12.374Z</time>
      </trkpt>
      <trkpt lat="41.77067" lon="41.75592">
        <ele>42.001019</ele>
        <time>2021-09-08T07:50:52.371Z</time>
      </trkpt>
      <trkpt lat="41.77286" lon="41.75681">
        <ele>25.688537</ele>
        <time>2021-09-08T07:51:16.403Z</time>
      </trkpt>
      <trkpt lat="41.77472" lon="41.75873">
        <ele>25.297613</ele>
        <time>2021-09-08T07:52:01.394Z</time>
      </trkpt>
      <trkpt lat="41.77648" lon="41.76049">
        <ele>31.068834</ele>
        <time>2021-09-08T07:52:49.408Z</time>
      </trkpt>
      <trkpt lat="41.77817" lon="41.76217">
        <ele>33.431035</ele>
        <time>2021-09-08T07:53:35.393Z</time>
      </trkpt>
      <trkpt lat="41.78017" lon="41.76374">
        <ele>28.692228</ele>
        <time>2021-09-08T07:54:27.390Z</time>
      </trkpt>
      <trkpt lat="41.78209" lon="41.76455">
        <ele>27.433512</ele>
        <time>2021-09-08T07:55:07.378Z</time>
      </trkpt>
      <trkpt lat="41.78414" lon="41.76533">
        <ele>26.783856</ele>
        <time>2021-09-08T07:55:53.399Z</time>
      </trkpt>
      <trkpt lat="41.78616" lon="41.7662">
        <ele>27.853933</ele>
        <time>2021-09-08T07:56:39.402Z</time>
      </trkpt>
      <trkpt lat="41.78825" lon="41.76699">
        <ele>30.190697</ele>
        <time>2021-09-08T07:57:26.405Z</time>
      </trkpt>
      <trkpt lat="41.79015" lon="41.76794">
        <ele>27.142186</ele>
        <time>2021-09-08T07:58:10.370Z</time>
      </trkpt>
      <trkpt lat="41.79198" lon="41.76902">
        <ele>24.83339</ele>
        <time>2021-09-08T07:58:52.385Z</time>
      </trkpt>
      <trkpt lat="41.794" lon="41.77038">
        <ele>25.897505</ele>
        <time>2021-09-08T07:59:43.381Z</time>
      </trkpt>
      <trkpt lat="41.79596" lon="41.7715">
        <ele>28.776434</ele>
        <time>2021-09-08T08:00:30.409Z</time>
      </trkpt>
      <trkpt lat="41.79789" lon="41.77273">
        <ele>27.72365</ele>
        <time>2021-09-08T08:01:17.365Z</time>
      </trkpt>
      <trkpt lat="41.80001" lon="41.77405">
        <ele>27.55408</ele>
        <time>2021-09-08T08:02:11.354Z</time>
      </trkpt>
      <trkpt lat="41.80219" lon="41.77543">
        <ele>29.051191</ele>
        <time>2021-09-08T08:03:09.352Z</time>
      </trkpt>
      <trkpt lat="41.80438" lon="41.7766">
        <ele>30.077935</ele>
        <time>2021-09-08T08:04:08.351Z</time>
      </trkpt>
      <trkpt lat="41.80465" lon="41.77618">
        <ele>31.24687</ele>
        <time>2021-09-08T08:05:25.386Z</time>
      </trkpt>
      <trkpt lat="41.80608" lon="41.7778">
        <ele>30.9436</ele>
        <time>2021-09-08T08:06:27.377Z</time>
      </trkpt>
      <trkpt lat="41.80822" lon="41.77867">
        <ele>28.693134</ele>
        <time>2021-09-08T08:07:19.374Z</time>
      </trkpt>
      <trkpt lat="41.81039" lon="41.78013">
        <ele>32.747717</ele>
        <time>2021-09-08T08:08:17.380Z</time>
      </trkpt>
      <trkpt lat="41.81169" lon="41.77792">
        <ele>33.193763</ele>
        <time>2021-09-08T08:09:09.359Z</time>
      </trkpt>
      <trkpt lat="41.81329" lon="41.77574">
        <ele>30.946105</ele>
        <time>2021-09-08T08:10:03.359Z</time>
      </trkpt>
      <trkpt lat="41.81529" lon="41.7741">
        <ele>34.650953</ele>
        <time>2021-09-08T08:11:00.356Z</time>
      </trkpt>
      <trkpt lat="41.81743" lon="41.77431">
        <ele>45.42763</ele>
        <time>2021-09-08T08:12:00.356Z</time>
      </trkpt>
      <trkpt lat="41.81953" lon="41.77453">
        <ele>53.92685</ele>
        <time>2021-09-08T08:13:01.354Z</time>
      </trkpt>
      <trkpt lat="41.82174" lon="41.77538">
        <ele>42.1165</ele>
        <time>2021-09-08T08:22:27.359Z</time>
      </trkpt>
      <trkpt lat="41.82399" lon="41.77576">
        <ele>43.233415</ele>
        <time>2021-09-08T08:23:21.352Z</time>
      </trkpt>
      <trkpt lat="41.82639" lon="41.77605">
        <ele>41.676621</ele>
        <time>2021-09-08T08:24:21.353Z</time>
      </trkpt>
      <trkpt lat="41.82874" lon="41.77644">
        <ele>40.238443</ele>
        <time>2021-09-08T08:25:19.351Z</time>
      </trkpt>
      <trkpt lat="41.83112" lon="41.77695">
        <ele>41.062009</ele>
        <time>2021-09-08T08:26:17.356Z</time>
      </trkpt>
      <trkpt lat="41.83348" lon="41.7773">
        <ele>41.864378</ele>
        <time>2021-09-08T08:27:14.359Z</time>
      </trkpt>
      <trkpt lat="41.83562" lon="41.77765">
        <ele>39.599548</ele>
        <time>2021-09-08T08:28:03.376Z</time>
      </trkpt>
      <trkpt lat="41.83782" lon="41.77792">
        <ele>47.143131</ele>
        <time>2021-09-08T08:28:54.392Z</time>
      </trkpt>
      <trkpt lat="41.84023" lon="41.77826">
        <ele>47.007236</ele>
        <time>2021-09-08T08:29:51.379Z</time>
      </trkpt>
      <trkpt lat="41.84257" lon="41.77858">
        <ele>46.829327</ele>
        <time>2021-09-08T08:30:48.403Z</time>
      </trkpt>
      <trkpt lat="41.84496" lon="41.77884">
        <ele>51.626244</ele>
        <time>2021-09-08T08:31:45.391Z</time>
      </trkpt>
      <trkpt lat="41.84744" lon="41.77911">
        <ele>57.071461</ele>
        <time>2021-09-08T08:32:43.406Z</time>
      </trkpt>
      <trkpt lat="41.8497" lon="41.77938">
        <ele>46.436816</ele>
        <time>2021-09-08T08:33:36.396Z</time>
      </trkpt>
      <trkpt lat="41.85205" lon="41.77953">
        <ele>53.023325</ele>
        <time>2021-09-08T08:34:32.387Z</time>
      </trkpt>
      <trkpt lat="41.85439" lon="41.77969">
        <ele>50.516391</ele>
        <time>2021-09-08T08:35:26.417Z</time>
      </trkpt>
      <trkpt lat="41.85674" lon="41.77975">
        <ele>46.633099</ele>
        <time>2021-09-08T08:36:21.380Z</time>
      </trkpt>
      <trkpt lat="41.85907" lon="41.77971">
        <ele>44.955383</ele>
        <time>2021-09-08T08:37:15.381Z</time>
      </trkpt>
      <trkpt lat="41.86137" lon="41.77966">
        <ele>46.608521</ele>
        <time>2021-09-08T08:38:09.398Z</time>
      </trkpt>
      <trkpt lat="41.8636" lon="41.77966">
        <ele>47.376738</ele>
        <time>2021-09-08T08:39:00.394Z</time>
      </trkpt>
      <trkpt lat="41.86587" lon="41.77919">
        <ele>42.475682</ele>
        <time>2021-09-08T08:39:54.432Z</time>
      </trkpt>
      <trkpt lat="41.86814" lon="41.77876">
        <ele>39.696423</ele>
        <time>2021-09-08T08:40:46.388Z</time>
      </trkpt>
      <trkpt lat="41.87038" lon="41.77836">
        <ele>45.903059</ele>
        <time>2021-09-08T08:41:39.387Z</time>
      </trkpt>
      <trkpt lat="41.8726" lon="41.77759">
        <ele>47.136793</ele>
        <time>2021-09-08T08:42:33.380Z</time>
      </trkpt>
      <trkpt lat="41.87477" lon="41.77666">
        <ele>44.273665</ele>
        <time>2021-09-08T08:43:26.402Z</time>
      </trkpt>
      <trkpt lat="41.87712" lon="41.77581">
        <ele>44.221883</ele>
        <time>2021-09-08T08:44:23.416Z</time>
      </trkpt>
      <trkpt lat="41.87933" lon="41.77531">
        <ele>36.445805</ele>
        <time>2021-09-08T08:45:14.386Z</time>
      </trkpt>
      <trkpt lat="41.88158" lon="41.77499">
        <ele>26.859096</ele>
        <time>2021-09-08T08:46:10.375Z</time>
      </trkpt>
      <trkpt lat="41.88381" lon="41.77467">
        <ele>31.431725</ele>
        <time>2021-09-08T08:47:04.361Z</time>
      </trkpt>
      <trkpt lat="41.886" lon="41.77434">
        <ele>33.583253</ele>
        <time>2021-09-08T08:47:54.396Z</time>
      </trkpt>
      <trkpt lat="41.88838" lon="41.77395">
        <ele>33.0368</ele>
        <time>2021-09-08T08:48:50.378Z</time>
      </trkpt>
      <trkpt lat="41.89061" lon="41.77365">
        <ele>31.513823</ele>
        <time>2021-09-08T08:49:41.420Z</time>
      </trkpt>
      <trkpt lat="41.89298" lon="41.77332">
        <ele>26.98175</ele>
        <time>2021-09-08T08:50:35.382Z</time>
      </trkpt>
      <trkpt lat="41.89523" lon="41.77337">
        <ele>27.128327</ele>
        <time>2021-09-08T08:51:30.360Z</time>
      </trkpt>
      <trkpt lat="41.8976" lon="41.77358">
        <ele>33.480902</ele>
        <time>2021-09-08T08:52:27.393Z</time>
      </trkpt>
      <trkpt lat="41.89978" lon="41.77381">
        <ele>27.856587</ele>
        <time>2021-09-08T08:53:20.387Z</time>
      </trkpt>
      <trkpt lat="41.90203" lon="41.77404">
        <ele>25.203599</ele>
        <time>2021-09-08T08:54:13.379Z</time>
      </trkpt>
      <trkpt lat="41.90445" lon="41.77418">
        <ele>32.264979</ele>
        <time>2021-09-08T08:55:11.415Z</time>
      </trkpt>
      <trkpt lat="41.90682" lon="41.77417">
        <ele>29.227459</ele>
        <time>2021-09-08T08:56:06.395Z</time>
      </trkpt>
      <trkpt lat="41.90911" lon="41.77417">
        <ele>30.606154</ele>
        <time>2021-09-08T08:56:59.385Z</time>
      </trkpt>
      <trkpt lat="41.91126" lon="41.77412">
        <ele>29.807264</ele>
        <time>2021-09-08T08:57:59.375Z</time>
      </trkpt>
      <trkpt lat="41.91316" lon="41.77366">
        <ele>24.876303</ele>
        <time>2021-09-08T08:59:00.377Z</time>
      </trkpt>
      <trkpt lat="41.91299" lon="41.77122">
        <ele>18.858039</ele>
        <time>2021-09-08T09:02:53.395Z</time>
      </trkpt>
      <trkpt lat="41.91416" lon="41.77179">
        <ele>24.249533</ele>
        <time>2021-09-08T09:04:37.369Z</time>
      </trkpt>
      <trkpt lat="41.91619" lon="41.77129">
        <ele>30.920383</ele>
        <time>2021-09-08T09:06:01.404Z</time>
      </trkpt>
      <trkpt lat="41.9182" lon="41.7711">
        <ele>31.091694</ele>
        <time>2021-09-08T09:07:23.416Z</time>
      </trkpt>
      <trkpt lat="41.92023" lon="41.77072">
        <ele>32.432497</ele>
        <time>2021-09-08T09:08:42.397Z</time>
      </trkpt>
      <trkpt lat="41.92229" lon="41.77015">
        <ele>28.198768</ele>
        <time>2021-09-08T09:09:57.373Z</time>
      </trkpt>
      <trkpt lat="41.92438" lon="41.77014">
        <ele>26.972624</ele>
        <time>2021-09-08T09:11:06.373Z</time>
      </trkpt>
      <trkpt lat="41.92674" lon="41.76982">
        <ele>30.223223</ele>
        <time>2021-09-08T09:12:04.436Z</time>
      </trkpt>
      <trkpt lat="41.9289" lon="41.7695">
        <ele>36.382751</ele>
        <time>2021-09-08T09:12:52.367Z</time>
      </trkpt>
      <trkpt lat="41.93112" lon="41.76922">
        <ele>31.720416</ele>
        <time>2021-09-08T09:13:49.383Z</time>
      </trkpt>
      <trkpt lat="41.93042" lon="41.76916">
        <ele>-2.658015</ele>
        <time>2021-09-08T09:42:22.119Z</time>
      </trkpt>
      <trkpt lat="41.93075" lon="41.76708">
        <ele>25.73493</ele>
        <time>2021-09-08T09:43:45.090Z</time>
      </trkpt>
      <trkpt lat="41.93182" lon="41.76615">
        <ele>22.811567</ele>
        <time>2021-09-08T09:45:37.053Z</time>
      </trkpt>
      <trkpt lat="41.93292" lon="41.76785">
        <ele>30.166498</ele>
        <time>2021-09-08T09:47:14.078Z</time>
      </trkpt>
      <trkpt lat="41.93437" lon="41.76887">
        <ele>32.233003</ele>
        <time>2021-09-08T09:48:46.067Z</time>
      </trkpt>
      <trkpt lat="41.93653" lon="41.76863">
        <ele>25.458003</ele>
        <time>2021-09-08T09:49:44.077Z</time>
      </trkpt>
      <trkpt lat="41.93817" lon="41.76977">
        <ele>31.798919</ele>
        <time>2021-09-08T09:50:51.071Z</time>
      </trkpt>
      <trkpt lat="41.9394" lon="41.77143">
        <ele>24.818353</ele>
        <time>2021-09-08T09:51:49.080Z</time>
      </trkpt>
      <trkpt lat="41.94173" lon="41.77106">
        <ele>20.712589</ele>
        <time>2021-09-08T09:52:49.095Z</time>
      </trkpt>
      <trkpt lat="41.94398" lon="41.77079">
        <ele>26.841093</ele>
        <time>2021-09-08T09:53:41.074Z</time>
      </trkpt>
      <trkpt lat="41.94611" lon="41.77064">
        <ele>25.168663</ele>
        <time>2021-09-08T09:54:28.068Z</time>
      </trkpt>
      <trkpt lat="41.94841" lon="41.77048">
        <ele>26.559603</ele>
        <time>2021-09-08T09:55:21.073Z</time>
      </trkpt>
      <trkpt lat="41.95093" lon="41.77047">
        <ele>25.014334</ele>
        <time>2021-09-08T09:56:19.080Z</time>
      </trkpt>
      <trkpt lat="41.9535" lon="41.77078">
        <ele>23.119096</ele>
        <time>2021-09-08T09:57:22.056Z</time>
      </trkpt>
      <trkpt lat="41.95581" lon="41.77157">
        <ele>24.321837</ele>
        <time>2021-09-08T09:58:22.063Z</time>
      </trkpt>
      <trkpt lat="41.95796" lon="41.77244">
        <ele>31.629114</ele>
        <time>2021-09-08T09:59:22.091Z</time>
      </trkpt>
      <trkpt lat="41.96013" lon="41.77298">
        <ele>35.247939</ele>
        <time>2021-09-08T10:00:23.053Z</time>
      </trkpt>
      <trkpt lat="41.96251" lon="41.7731">
        <ele>35.071313</ele>
        <time>2021-09-08T10:01:21.078Z</time>
      </trkpt>
      <trkpt lat="41.96496" lon="41.77325">
        <ele>33.265293</ele>
        <time>2021-09-08T10:02:18.079Z</time>
      </trkpt>
      <trkpt lat="41.96724" lon="41.77385">
        <ele>33.004783</ele>
        <time>2021-09-08T10:03:11.064Z</time>
      </trkpt>
      <trkpt lat="41.96823" lon="41.7761">
        <ele>34.599991</ele>
        <time>2021-09-08T10:04:06.087Z</time>
      </trkpt>
      <trkpt lat="41.96824" lon="41.77891">
        <ele>45.084189</ele>
        <time>2021-09-08T10:05:32.087Z</time>
      </trkpt>
      <trkpt lat="41.96894" lon="41.78149">
        <ele>44.301051</ele>
        <time>2021-09-08T10:06:53.080Z</time>
      </trkpt>
      <trkpt lat="41.97154" lon="41.78216">
        <ele>44.008864</ele>
        <time>2021-09-08T10:07:33.082Z</time>
      </trkpt>
      <trkpt lat="41.97384" lon="41.78216">
        <ele>45.472851</ele>
        <time>2021-09-08T10:08:18.058Z</time>
      </trkpt>
      <trkpt lat="41.97601" lon="41.78212">
        <ele>46.55891</ele>
        <time>2021-09-08T10:09:03.081Z</time>
      </trkpt>
      <trkpt lat="41.97814" lon="41.78214">
        <ele>47.464472</ele>
        <time>2021-09-08T10:09:43.064Z</time>
      </trkpt>
      <trkpt lat="41.98011" lon="41.78278">
        <ele>47.08319</ele>
        <time>2021-09-08T10:10:23.069Z</time>
      </trkpt>
      <trkpt lat="41.98228" lon="41.78344">
        <ele>44.120506</ele>
        <time>2021-09-08T10:11:09.071Z</time>
      </trkpt>
      <trkpt lat="41.98448" lon="41.78401">
        <ele>50.007202</ele>
        <time>2021-09-08T10:11:58.112Z</time>
      </trkpt>
      <trkpt lat="41.98639" lon="41.78371">
        <ele>46.317226</ele>
        <time>2021-09-08T10:12:39.074Z</time>
      </trkpt>
      <trkpt lat="41.9882" lon="41.782">
        <ele>51.221834</ele>
        <time>2021-09-08T10:13:42.069Z</time>
      </trkpt>
      <trkpt lat="41.99029" lon="41.78119">
        <ele>45.816473</ele>
        <time>2021-09-08T10:14:28.065Z</time>
      </trkpt>
      <trkpt lat="41.99248" lon="41.781">
        <ele>39.343191</ele>
        <time>2021-09-08T10:15:23.081Z</time>
      </trkpt>
      <trkpt lat="41.99438" lon="41.77987">
        <ele>46.454725</ele>
        <time>2021-09-08T10:16:20.077Z</time>
      </trkpt>
      <trkpt lat="41.99657" lon="41.77941">
        <ele>46.147475</ele>
        <time>2021-09-08T10:17:10.071Z</time>
      </trkpt>
      <trkpt lat="41.99867" lon="41.77894">
        <ele>45.280623</ele>
        <time>2021-09-08T10:18:14.069Z</time>
      </trkpt>
      <trkpt lat="41.9989" lon="41.77623">
        <ele>34.227808</ele>
        <time>2021-09-08T10:19:04.094Z</time>
      </trkpt>
      <trkpt lat="41.99869" lon="41.7731">
        <ele>29.035784</ele>
        <time>2021-09-08T10:19:59.078Z</time>
      </trkpt>
      <trkpt lat="41.99845" lon="41.76989">
        <ele>34.391775</ele>
        <time>2021-09-08T10:20:59.132Z</time>
      </trkpt>
      <trkpt lat="41.99829" lon="41.76689">
        <ele>36.348593</ele>
        <time>2021-09-08T10:21:52.077Z</time>
      </trkpt>
      <trkpt lat="41.99983" lon="41.76536">
        <ele>38.986414</ele>
        <time>2021-09-08T10:22:52.092Z</time>
      </trkpt>
      <trkpt lat="42.00128" lon="41.76314">
        <ele>34.802432</ele>
        <time>2021-09-08T10:23:46.132Z</time>
      </trkpt>
      <trkpt lat="42.00271" lon="41.76118">
        <ele>40.405889</ele>
        <time>2021-09-08T10:24:44.082Z</time>
      </trkpt>
      <trkpt lat="42.00498" lon="41.76064">
        <ele>43.092465</ele>
        <time>2021-09-08T10:25:41.080Z</time>
      </trkpt>
      <trkpt lat="42.00724" lon="41.76009">
        <ele>43.16572</ele>
        <time>2021-09-08T10:26:36.070Z</time>
      </trkpt>
      <trkpt lat="42.00953" lon="41.75969">
        <ele>41.369308</ele>
        <time>2021-09-08T10:27:31.073Z</time>
      </trkpt>
      <trkpt lat="42.01189" lon="41.7593">
        <ele>42.624415</ele>
        <time>2021-09-08T10:28:29.091Z</time>
      </trkpt>
      <trkpt lat="42.01415" lon="41.75841">
        <ele>40.401728</ele>
        <time>2021-09-08T10:29:28.055Z</time>
      </trkpt>
      <trkpt lat="42.01637" lon="41.75743">
        <ele>38.244309</ele>
        <time>2021-09-08T10:30:27.094Z</time>
      </trkpt>
      <trkpt lat="42.0184" lon="41.75661">
        <ele>36.842068</ele>
        <time>2021-09-08T10:31:19.109Z</time>
      </trkpt>
      <trkpt lat="42.02028" lon="41.75778">
        <ele>29.278823</ele>
        <time>2021-09-08T10:32:09.091Z</time>
      </trkpt>
      <trkpt lat="42.02177" lon="41.75877">
        <ele>30.435252</ele>
        <time>2021-09-08T10:33:08.069Z</time>
      </trkpt>
      <trkpt lat="42.02312" lon="41.75678">
        <ele>35.481886</ele>
        <time>2021-09-08T10:34:08.077Z</time>
      </trkpt>
      <trkpt lat="42.02465" lon="41.75449">
        <ele>33.646544</ele>
        <time>2021-09-08T10:35:08.071Z</time>
      </trkpt>
      <trkpt lat="42.02614" lon="41.7523">
        <ele>34.544976</ele>
        <time>2021-09-08T10:35:51.070Z</time>
      </trkpt>
      <trkpt lat="42.02755" lon="41.75023">
        <ele>38.19738</ele>
        <time>2021-09-08T10:36:36.074Z</time>
      </trkpt>
      <trkpt lat="42.02906" lon="41.74824">
        <ele>33.630491</ele>
        <time>2021-09-08T10:37:18.091Z</time>
      </trkpt>
      <trkpt lat="42.03082" lon="41.74631">
        <ele>36.046876</ele>
        <time>2021-09-08T10:38:15.111Z</time>
      </trkpt>
      <trkpt lat="42.03266" lon="41.74446">
        <ele>38.597169</ele>
        <time>2021-09-08T10:39:11.072Z</time>
      </trkpt>
      <trkpt lat="42.03428" lon="41.74261">
        <ele>38.872884</ele>
        <time>2021-09-08T10:39:57.077Z</time>
      </trkpt>
      <trkpt lat="42.03594" lon="41.74102">
        <ele>36.522381</ele>
        <time>2021-09-08T10:40:40.075Z</time>
      </trkpt>
      <trkpt lat="42.03769" lon="41.73921">
        <ele>33.794459</ele>
        <time>2021-09-08T10:41:24.079Z</time>
      </trkpt>
      <trkpt lat="42.03928" lon="41.73739">
        <ele>33.846281</ele>
        <time>2021-09-08T10:42:09.076Z</time>
      </trkpt>
      <trkpt lat="42.04124" lon="41.73584">
        <ele>33.058583</ele>
        <time>2021-09-08T10:43:01.076Z</time>
      </trkpt>
      <trkpt lat="42.0434" lon="41.73465">
        <ele>31.809312</ele>
        <time>2021-09-08T10:43:56.080Z</time>
      </trkpt>
      <trkpt lat="42.04555" lon="41.73351">
        <ele>33.537184</ele>
        <time>2021-09-08T10:44:48.098Z</time>
      </trkpt>
      <trkpt lat="42.04766" lon="41.73236">
        <ele>30.653637</ele>
        <time>2021-09-08T10:45:39.082Z</time>
      </trkpt>
      <trkpt lat="42.04989" lon="41.73118">
        <ele>31.146825</ele>
        <time>2021-09-08T10:46:36.087Z</time>
      </trkpt>
      <trkpt lat="42.05202" lon="41.73003">
        <ele>32.648595</ele>
        <time>2021-09-08T10:47:30.075Z</time>
      </trkpt>
      <trkpt lat="42.05415" lon="41.72885">
        <ele>34.464238</ele>
        <time>2021-09-08T10:48:23.078Z</time>
      </trkpt>
      <trkpt lat="42.05626" lon="41.7277">
        <ele>36.196802</ele>
        <time>2021-09-08T10:49:15.119Z</time>
      </trkpt>
      <trkpt lat="42.05822" lon="41.72661">
        <ele>32.298187</ele>
        <time>2021-09-08T10:50:02.084Z</time>
      </trkpt>
      <trkpt lat="42.06029" lon="41.72554">
        <ele>29.976152</ele>
        <time>2021-09-08T10:50:52.103Z</time>
      </trkpt>
      <trkpt lat="42.0627" lon="41.7243">
        <ele>27.891121</ele>
        <time>2021-09-08T10:51:52.067Z</time>
      </trkpt>
      <trkpt lat="42.06474" lon="41.72324">
        <ele>29.192129</ele>
        <time>2021-09-08T10:52:42.083Z</time>
      </trkpt>
      <trkpt lat="42.06681" lon="41.72179">
        <ele>27.970668</ele>
        <time>2021-09-08T10:53:35.078Z</time>
      </trkpt>
      <trkpt lat="42.06866" lon="41.72006">
        <ele>26.202372</ele>
        <time>2021-09-08T10:54:26.088Z</time>
      </trkpt>
      <trkpt lat="42.07055" lon="41.7183">
        <ele>30.482024</ele>
        <time>2021-09-08T10:55:20.075Z</time>
      </trkpt>
      <trkpt lat="42.0725" lon="41.7165">
        <ele>31.283277</ele>
        <time>2021-09-08T10:56:15.081Z</time>
      </trkpt>
      <trkpt lat="42.07446" lon="41.71492">
        <ele>31.105464</ele>
        <time>2021-09-08T10:57:07.079Z</time>
      </trkpt>
      <trkpt lat="42.07641" lon="41.71367">
        <ele>31.030948</ele>
        <time>2021-09-08T10:57:55.082Z</time>
      </trkpt>
      <trkpt lat="42.07841" lon="41.71256">
        <ele>31.451666</ele>
        <time>2021-09-08T10:58:43.083Z</time>
      </trkpt>
      <trkpt lat="42.08073" lon="41.7114">
        <ele>31.544825</ele>
        <time>2021-09-08T10:59:40.099Z</time>
      </trkpt>
      <trkpt lat="42.08287" lon="41.71029">
        <ele>30.304022</ele>
        <time>2021-09-08T11:00:33.114Z</time>
      </trkpt>
      <trkpt lat="42.08508" lon="41.70916">
        <ele>29.078241</ele>
        <time>2021-09-08T11:01:27.070Z</time>
      </trkpt>
      <trkpt lat="42.08719" lon="41.70809">
        <ele>34.68619</ele>
        <time>2021-09-08T11:02:19.103Z</time>
      </trkpt>
      <trkpt lat="42.08928" lon="41.70699">
        <ele>36.272523</ele>
        <time>2021-09-08T11:03:10.103Z</time>
      </trkpt>
      <trkpt lat="42.09135" lon="41.70589">
        <ele>32.494257</ele>
        <time>2021-09-08T11:04:05.081Z</time>
      </trkpt>
      <trkpt lat="42.09349" lon="41.70479">
        <ele>29.243934</ele>
        <time>2021-09-08T11:05:05.077Z</time>
      </trkpt>
      <trkpt lat="42.09551" lon="41.70376">
        <ele>31.532079</ele>
        <time>2021-09-08T11:05:51.099Z</time>
      </trkpt>
      <trkpt lat="42.09486" lon="41.70093">
        <ele>38.203179</ele>
        <time>2021-09-08T11:06:35.071Z</time>
      </trkpt>
      <trkpt lat="42.09417" lon="41.69844">
        <ele>32.0293</ele>
        <time>2021-09-08T11:07:16.118Z</time>
      </trkpt>
      <trkpt lat="42.09534" lon="41.69639">
        <ele>25.849576</ele>
        <time>2021-09-08T11:08:09.102Z</time>
      </trkpt>
      <trkpt lat="42.09742" lon="41.69457">
        <ele>23.222999</ele>
        <time>2021-09-08T11:09:09.077Z</time>
      </trkpt>
      <trkpt lat="42.09942" lon="41.69279">
        <ele>25.103992</ele>
        <time>2021-09-08T11:10:07.076Z</time>
      </trkpt>
      <trkpt lat="42.1015" lon="41.69094">
        <ele>25.596307</ele>
        <time>2021-09-08T11:11:07.091Z</time>
      </trkpt>
      <trkpt lat="42.10338" lon="41.68926">
        <ele>23.498423</ele>
        <time>2021-09-08T11:15:13.073Z</time>
      </trkpt>
      <trkpt lat="42.10534" lon="41.68811">
        <ele>21.447326</ele>
        <time>2021-09-08T11:16:12.080Z</time>
      </trkpt>
      <trkpt lat="42.1074" lon="41.68629">
        <ele>18.360075</ele>
        <time>2021-09-08T11:17:09.078Z</time>
      </trkpt>
      <trkpt lat="42.10949" lon="41.68445">
        <ele>18.213436</ele>
        <time>2021-09-08T11:18:07.111Z</time>
      </trkpt>
      <trkpt lat="42.11171" lon="41.6825">
        <ele>18.758422</ele>
        <time>2021-09-08T11:19:09.095Z</time>
      </trkpt>
      <trkpt lat="42.11367" lon="41.68073">
        <ele>19.800144</ele>
        <time>2021-09-08T11:20:07.076Z</time>
      </trkpt>
      <trkpt lat="42.11513" lon="41.68292">
        <ele>23.284498</ele>
        <time>2021-09-08T11:21:07.095Z</time>
      </trkpt>
      <trkpt lat="42.11644" lon="41.68558">
        <ele>22.694991</ele>
        <time>2021-09-08T11:22:03.060Z</time>
      </trkpt>
      <trkpt lat="42.11784" lon="41.6883">
        <ele>19.388875</ele>
        <time>2021-09-08T11:23:01.060Z</time>
      </trkpt>
      <trkpt lat="42.11947" lon="41.68644">
        <ele>14.787034</ele>
        <time>2021-09-08T11:23:53.071Z</time>
      </trkpt>
      <trkpt lat="42.12107" lon="41.68392">
        <ele>15.705941</ele>
        <time>2021-09-08T11:24:53.087Z</time>
      </trkpt>
      <trkpt lat="42.12266" lon="41.68145">
        <ele>17.453191</ele>
        <time>2021-09-08T11:25:50.103Z</time>
      </trkpt>
      <trkpt lat="42.12416" lon="41.6791">
        <ele>18.401377</ele>
        <time>2021-09-08T11:26:44.077Z</time>
      </trkpt>
      <trkpt lat="42.12558" lon="41.67687">
        <ele>19.659752</ele>
        <time>2021-09-08T11:27:37.084Z</time>
      </trkpt>
      <trkpt lat="42.12722" lon="41.67487">
        <ele>23.487692</ele>
        <time>2021-09-08T11:28:32.065Z</time>
      </trkpt>
      <trkpt lat="42.12961" lon="41.67464">
        <ele>30.876843</ele>
        <time>2021-09-08T11:29:28.071Z</time>
      </trkpt>
      <trkpt lat="42.13206" lon="41.6744">
        <ele>31.672267</ele>
        <time>2021-09-08T11:30:28.077Z</time>
      </trkpt>
      <trkpt lat="42.13443" lon="41.67419">
        <ele>31.99022</ele>
        <time>2021-09-08T11:31:28.068Z</time>
      </trkpt>
      <trkpt lat="42.13672" lon="41.67393">
        <ele>33.059875</ele>
        <time>2021-09-08T11:32:28.072Z</time>
      </trkpt>
      <trkpt lat="42.139" lon="41.67371">
        <ele>32.575267</ele>
        <time>2021-09-08T11:33:28.075Z</time>
      </trkpt>
      <trkpt lat="42.14023" lon="41.6753">
        <ele>28.438269</ele>
        <time>2021-09-08T11:34:28.057Z</time>
      </trkpt>
      <trkpt lat="42.14239" lon="41.67639">
        <ele>29.808313</ele>
        <time>2021-09-08T11:35:28.069Z</time>
      </trkpt>
      <trkpt lat="42.14329" lon="41.67427">
        <ele>27.878219</ele>
        <time>2021-09-08T11:36:20.083Z</time>
      </trkpt>
      <trkpt lat="42.1437" lon="41.6719">
        <ele>25.138417</ele>
        <time>2021-09-08T11:37:19.071Z</time>
      </trkpt>
      <trkpt lat="42.14495" lon="41.66935">
        <ele>30.69104</ele>
        <time>2021-09-08T11:38:11.068Z</time>
      </trkpt>
      <trkpt lat="42.14619" lon="41.66672">
        <ele>35.500494</ele>
        <time>2021-09-08T11:39:05.076Z</time>
      </trkpt>
      <trkpt lat="42.14746" lon="41.66405">
        <ele>33.089765</ele>
        <time>2021-09-08T11:39:59.052Z</time>
      </trkpt>
      <trkpt lat="42.14872" lon="41.66138">
        <ele>33.815513</ele>
        <time>2021-09-08T11:40:54.053Z</time>
      </trkpt>
      <trkpt lat="42.15022" lon="41.65935">
        <ele>31.206967</ele>
        <time>2021-09-08T11:41:53.043Z</time>
      </trkpt>
      <trkpt lat="42.15173" lon="41.66059">
        <ele>31.050054</ele>
        <time>2021-09-08T11:42:50.042Z</time>
      </trkpt>
      <trkpt lat="42.15235" lon="41.66164">
        <ele>31.093897</ele>
        <time>2021-09-08T11:44:55.977Z</time>
      </trkpt>
    </trkseg>
  </trk>
</gpx>